createdAt,value
2023-04-15T00:00:12.874Z,275
2023-04-15T00:00:36.726Z,277
2023-04-15T00:00:59.275Z,275
2023-04-15T00:01:31.956Z,275
2023-04-15T00:02:03.066Z,277
2023-04-15T00:02:35.125Z,276
2023-04-15T00:03:07.458Z,278
2023-04-15T00:03:39.182Z,277
2023-04-15T00:04:11.665Z,278
2023-04-15T00:04:36.658Z,280
2023-04-15T00:04:58.822Z,280
2023-04-15T00:05:32.240Z,281
2023-04-15T00:06:03.215Z,281
2023-04-15T00:06:34.907Z,281
2023-04-15T00:07:07.195Z,278
2023-04-15T00:07:39.023Z,275
2023-04-15T00:08:11.422Z,278
2023-04-15T00:08:36.569Z,278
2023-04-15T00:08:59.078Z,275
2023-04-15T00:09:31.979Z,275
2023-04-15T00:10:04.450Z,275
2023-04-15T00:10:34.883Z,274
2023-04-15T00:11:07.028Z,273
2023-04-15T00:11:38.740Z,272
2023-04-15T00:12:26.773Z,180
2023-04-15T00:12:59.154Z,273
2023-04-15T00:13:32.034Z,272
2023-04-15T00:14:02.951Z,276
2023-04-15T00:14:34.886Z,276
2023-04-15T00:15:08.497Z,276
2023-04-15T00:15:38.964Z,276
2023-04-15T00:16:11.912Z,276
2023-04-15T00:16:36.654Z,276
2023-04-15T00:16:58.888Z,279
2023-04-15T00:17:32.083Z,278
2023-04-15T00:18:03.046Z,277
2023-04-15T00:18:35.520Z,275
2023-04-15T00:19:07.033Z,274
2023-04-15T00:19:39.001Z,274
2023-04-15T00:20:12.113Z,278
2023-04-15T00:20:36.734Z,279
2023-04-15T00:20:59.296Z,281
2023-04-15T00:21:32.006Z,282
2023-04-15T00:22:03.169Z,284
2023-04-15T00:22:35.078Z,289
2023-04-15T00:23:07.340Z,289
2023-04-15T00:23:38.982Z,288
2023-04-15T00:24:11.761Z,288
2023-04-15T00:24:36.770Z,285
2023-04-15T00:24:59.032Z,290
2023-04-15T00:25:32.532Z,294
2023-04-15T00:26:03.230Z,297
2023-04-15T00:26:35.281Z,297
2023-04-15T00:27:07.754Z,298
2023-04-15T00:27:39.408Z,303
2023-04-15T00:28:11.689Z,306
2023-04-15T00:28:36.832Z,309
2023-04-15T00:28:59.232Z,310
2023-04-15T00:29:31.974Z,313
2023-04-15T00:30:05.575Z,311
2023-04-15T00:30:34.988Z,311
2023-04-15T00:31:07.103Z,308
2023-04-15T00:31:38.891Z,307
2023-04-15T00:32:11.900Z,304
2023-04-15T00:32:36.810Z,300
2023-04-15T00:32:59.382Z,301
2023-04-15T00:33:32.081Z,301
2023-04-15T00:34:02.857Z,301
2023-04-15T00:34:34.895Z,305
2023-04-15T00:35:07.875Z,303
2023-04-15T00:35:38.790Z,301
2023-04-15T00:36:11.815Z,297
2023-04-15T00:36:37.532Z,298
2023-04-15T00:36:58.800Z,295
2023-04-15T00:37:32.383Z,295
2023-04-15T00:38:03.165Z,294
2023-04-15T00:38:34.934Z,291
2023-04-15T00:39:07.045Z,292
2023-04-15T00:39:38.668Z,288
2023-04-15T00:40:11.936Z,292
2023-04-15T00:40:36.788Z,290
2023-04-15T00:40:59.187Z,294
2023-04-15T00:41:31.980Z,293
2023-04-15T00:42:03.363Z,294
2023-04-15T00:42:35.004Z,298
2023-04-15T00:43:07.102Z,295
2023-04-15T00:43:39.018Z,293
2023-04-15T00:44:11.569Z,292
2023-04-15T00:44:36.889Z,292
2023-04-15T00:44:59.300Z,291
2023-04-15T00:45:33.075Z,290
2023-04-15T00:46:03.078Z,293
2023-04-15T00:46:35.201Z,298
2023-04-15T00:46:51.603Z,299
2023-04-15T00:47:23.095Z,299
2023-04-15T00:47:45.131Z,300
2023-04-15T00:48:11.601Z,301
2023-04-15T00:48:36.938Z,300
2023-04-15T00:48:59.229Z,301
2023-04-15T00:49:32.028Z,296
2023-04-15T00:50:04.646Z,299
2023-04-15T00:50:35.053Z,296
2023-04-15T00:51:07.508Z,296
2023-04-15T00:51:38.919Z,295
2023-04-15T00:52:11.632Z,293
2023-04-15T00:52:36.790Z,291
2023-04-15T00:52:58.913Z,294
2023-04-15T00:53:31.844Z,297
2023-04-15T00:54:02.853Z,295
2023-04-15T00:54:35.143Z,294
2023-04-15T00:55:07.983Z,293
2023-04-15T00:55:39.081Z,293
2023-04-15T00:56:11.878Z,293
2023-04-15T00:56:36.919Z,289
2023-04-15T00:56:59.147Z,285
2023-04-15T00:57:31.895Z,282
2023-04-15T00:58:03.272Z,281
2023-04-15T00:58:35.052Z,283
2023-04-15T00:59:07.229Z,287
2023-04-15T00:59:38.883Z,291
2023-04-15T01:00:13.042Z,291
2023-04-15T01:00:36.890Z,295
2023-04-15T01:00:59.197Z,297
2023-04-15T01:01:31.808Z,300
2023-04-15T01:02:03.032Z,303
2023-04-15T01:02:40.987Z,309
2023-04-15T01:03:13.590Z,308
2023-04-15T01:03:38.998Z,303
2023-04-15T01:04:26.794Z,305
2023-04-15T01:04:58.779Z,305
2023-04-15T01:05:32.327Z,305
2023-04-15T01:06:04.186Z,303
2023-04-15T01:06:35.030Z,300
2023-04-15T01:07:07.208Z,303
2023-04-15T01:07:39.055Z,306
2023-04-15T01:08:11.557Z,305
2023-04-15T01:08:36.859Z,310
2023-04-15T01:08:59.241Z,314
2023-04-15T01:09:32.201Z,312
2023-04-15T01:10:04.722Z,310
2023-04-15T01:10:35.038Z,309
2023-04-15T01:11:07.084Z,306
2023-04-15T01:11:38.819Z,308
2023-04-15T01:12:11.550Z,311
2023-04-15T01:12:36.667Z,307
2023-04-15T01:12:58.906Z,303
2023-04-15T01:13:32.121Z,302
2023-04-15T01:14:02.936Z,304
2023-04-15T01:14:35.041Z,304
2023-04-15T01:15:08.440Z,304
2023-04-15T01:15:39.031Z,304
2023-04-15T01:16:11.640Z,304
2023-04-15T01:16:36.800Z,303
2023-04-15T01:16:58.818Z,300
2023-04-15T01:17:31.947Z,297
2023-04-15T01:18:03.173Z,301
2023-04-15T01:18:35.340Z,298
2023-04-15T01:19:07.497Z,297
2023-04-15T01:19:39.024Z,296
2023-04-15T01:20:12.366Z,297
2023-04-15T01:20:36.977Z,297
2023-04-15T01:20:59.381Z,296
2023-04-15T01:21:31.951Z,293
2023-04-15T01:22:03.085Z,288
2023-04-15T01:22:35.009Z,292
2023-04-15T01:23:07.302Z,295
2023-04-15T01:23:38.855Z,297
2023-04-15T01:24:11.590Z,296
2023-04-15T01:24:36.750Z,291
2023-04-15T01:24:58.807Z,294
2023-04-15T01:25:32.550Z,298
2023-04-15T01:26:02.828Z,300
2023-04-15T01:26:34.847Z,303
2023-04-15T01:27:07.134Z,308
2023-04-15T01:27:38.748Z,309
2023-04-15T01:28:11.614Z,309
2023-04-15T01:28:36.675Z,310
2023-04-15T01:28:59.529Z,305
2023-04-15T01:29:32.253Z,306
2023-04-15T01:30:05.224Z,307
2023-04-15T01:30:35.313Z,309
2023-04-15T01:31:07.232Z,310
2023-04-15T01:31:38.984Z,311
2023-04-15T01:32:11.815Z,314
2023-04-15T01:32:36.739Z,309
2023-04-15T01:32:58.941Z,308
2023-04-15T01:33:31.992Z,307
2023-04-15T01:34:02.886Z,311
2023-04-15T01:34:35.886Z,314
2023-04-15T01:35:07.901Z,316
2023-04-15T01:35:38.864Z,316
2023-04-15T01:36:11.617Z,315
2023-04-15T01:36:36.809Z,317
2023-04-15T01:36:58.954Z,314
2023-04-15T01:37:32.005Z,315
2023-04-15T01:38:02.926Z,315
2023-04-15T01:38:35.798Z,316
2023-04-15T01:39:06.954Z,320
2023-04-15T01:39:39.029Z,320
2023-04-15T01:40:12.025Z,316
2023-04-15T01:40:37.727Z,316
2023-04-15T01:40:59.282Z,320
2023-04-15T01:41:32.510Z,318
2023-04-15T01:42:02.844Z,319
2023-04-15T01:42:35.568Z,319
2023-04-15T01:43:07.145Z,317
2023-04-15T01:43:39.301Z,316
2023-04-15T01:44:11.596Z,316
2023-04-15T01:44:37.166Z,313
2023-04-15T01:44:58.883Z,312
2023-04-15T01:45:33.565Z,312
2023-04-15T01:46:03.107Z,308
2023-04-15T01:46:35.539Z,304
2023-04-15T01:47:07.182Z,302
2023-04-15T01:47:39.068Z,299
2023-04-15T01:48:11.723Z,296
2023-04-15T01:48:37.177Z,293
2023-04-15T01:48:59.163Z,289
2023-04-15T01:49:32.134Z,289
2023-04-15T01:50:04.804Z,293
2023-04-15T01:50:35.377Z,292
2023-04-15T01:50:52.045Z,290
2023-04-15T01:51:23.376Z,295
2023-04-15T01:51:44.784Z,292
2023-04-15T01:52:11.701Z,296
2023-04-15T01:52:37.258Z,298
2023-04-15T01:52:59.343Z,304
2023-04-15T01:53:31.986Z,303
2023-04-15T01:54:03.161Z,308
2023-04-15T01:54:35.110Z,309
2023-04-15T01:54:51.667Z,309
2023-04-15T01:55:23.518Z,314
2023-04-15T01:55:44.836Z,316
2023-04-15T01:56:11.785Z,318
2023-04-15T01:56:37.237Z,319
2023-04-15T01:56:59.437Z,325
2023-04-15T01:57:32.137Z,325
2023-04-15T01:58:03.372Z,329
2023-04-15T01:58:35.086Z,332
2023-04-15T01:58:51.589Z,333
2023-04-15T01:59:22.979Z,330
2023-04-15T01:59:44.669Z,331
2023-04-15T02:00:12.857Z,331
2023-04-15T02:00:37.189Z,336
2023-04-15T02:00:59.320Z,340
2023-04-15T02:01:31.651Z,336
2023-04-15T02:02:03.097Z,330
2023-04-15T02:02:35.641Z,324
2023-04-15T02:03:07.009Z,322
2023-04-15T02:03:39.425Z,322
2023-04-15T02:04:11.694Z,322
2023-04-15T02:04:36.800Z,320
2023-04-15T02:04:58.827Z,318
2023-04-15T02:05:32.449Z,318
2023-04-15T02:06:02.976Z,317
2023-04-15T02:06:35.000Z,314
2023-04-15T02:07:07.122Z,319
2023-04-15T02:07:38.862Z,313
2023-04-15T02:08:11.545Z,311
2023-04-15T02:08:36.878Z,309
2023-04-15T02:08:59.001Z,312
2023-04-15T02:09:31.897Z,313
2023-04-15T02:10:04.844Z,308
2023-04-15T02:10:35.360Z,305
2023-04-15T02:11:07.064Z,300
2023-04-15T02:11:38.874Z,300
2023-04-15T02:12:11.664Z,299
2023-04-15T02:12:37.038Z,299
2023-04-15T02:12:58.802Z,296
2023-04-15T02:13:31.870Z,297
2023-04-15T02:14:02.957Z,296
2023-04-15T02:14:35.092Z,292
2023-04-15T02:15:08.312Z,294
2023-04-15T02:15:38.954Z,296
2023-04-15T02:16:11.586Z,299
2023-04-15T02:16:36.932Z,300
2023-04-15T02:16:58.932Z,297
2023-04-15T02:17:32.174Z,302
2023-04-15T02:18:03.036Z,299
2023-04-15T02:18:35.326Z,300
2023-04-15T02:19:06.964Z,301
2023-04-15T02:19:38.971Z,298
2023-04-15T02:20:12.022Z,300
2023-04-15T02:20:36.893Z,299
2023-04-15T02:20:59.297Z,304
2023-04-15T02:21:32.107Z,309
2023-04-15T02:22:02.988Z,313
2023-04-15T02:22:35.060Z,315
2023-04-15T02:23:07.314Z,317
2023-04-15T02:23:39.422Z,318
2023-04-15T02:24:11.652Z,315
2023-04-15T02:24:36.913Z,315
2023-04-15T02:24:59.346Z,313
2023-04-15T02:25:32.457Z,314
2023-04-15T02:26:03.191Z,314
2023-04-15T02:26:35.055Z,312
2023-04-15T02:27:07.282Z,311
2023-04-15T02:27:38.972Z,313
2023-04-15T02:28:11.600Z,314
2023-04-15T02:28:36.825Z,312
2023-04-15T02:28:59.024Z,311
2023-04-15T02:29:31.944Z,316
2023-04-15T02:30:05.352Z,312
2023-04-15T02:30:35.085Z,314
2023-04-15T02:31:07.349Z,312
2023-04-15T02:31:39.208Z,312
2023-04-15T02:32:11.697Z,313
2023-04-15T02:32:37.224Z,315
2023-04-15T02:32:58.910Z,316
2023-04-15T02:33:31.593Z,311
2023-04-15T02:34:03.167Z,313
2023-04-15T02:34:35.094Z,318
2023-04-15T02:35:07.921Z,322
2023-04-15T02:35:38.862Z,320
2023-04-15T02:36:11.549Z,324
2023-04-15T02:36:37.199Z,323
2023-04-15T02:36:58.918Z,329
2023-04-15T02:37:31.981Z,324
2023-04-15T02:38:02.951Z,326
2023-04-15T02:38:35.899Z,324
2023-04-15T02:39:06.962Z,320
2023-04-15T02:39:38.899Z,322
2023-04-15T02:40:11.920Z,327
2023-04-15T02:40:36.810Z,325
2023-04-15T02:40:59.647Z,326
2023-04-15T02:41:32.094Z,324
2023-04-15T02:42:03.313Z,323
2023-04-15T02:42:34.997Z,321
2023-04-15T02:43:07.170Z,320
2023-04-15T02:43:38.882Z,323
2023-04-15T02:44:11.609Z,324
2023-04-15T02:44:36.791Z,323
2023-04-15T02:44:58.846Z,320
2023-04-15T02:45:32.939Z,321
2023-04-15T02:46:03.283Z,321
2023-04-15T02:46:34.990Z,321
2023-04-15T02:47:07.201Z,316
2023-04-15T02:47:38.828Z,316
2023-04-15T02:48:11.603Z,314
2023-04-15T02:48:37.221Z,318
2023-04-15T02:48:59.113Z,321
2023-04-15T02:49:31.921Z,317
2023-04-15T02:50:04.860Z,316
2023-04-15T02:50:34.946Z,318
2023-04-15T02:51:07.347Z,316
2023-04-15T02:51:38.884Z,313
2023-04-15T02:52:11.663Z,314
2023-04-15T02:52:36.809Z,315
2023-04-15T02:52:58.963Z,317
2023-04-15T02:53:32.134Z,316
2023-04-15T02:54:02.983Z,318
2023-04-15T02:54:35.123Z,315
2023-04-15T02:55:08.318Z,317
2023-04-15T02:55:38.900Z,315
2023-04-15T02:56:11.684Z,313
2023-04-15T02:56:37.120Z,316
2023-04-15T02:56:58.879Z,317
2023-04-15T02:57:32.134Z,320
2023-04-15T02:58:02.941Z,321
2023-04-15T02:58:36.362Z,322
2023-04-15T02:59:07.232Z,321
2023-04-15T02:59:38.929Z,323
2023-04-15T03:00:12.623Z,319
2023-04-15T03:00:37.327Z,316
2023-04-15T03:00:59.380Z,317
2023-04-15T03:01:32.191Z,320
2023-04-15T03:02:03.134Z,317
2023-04-15T03:02:35.197Z,316
2023-04-15T03:03:07.591Z,315
2023-04-15T03:03:38.889Z,312
2023-04-15T03:04:12.039Z,309
2023-04-15T03:04:36.868Z,310
2023-04-15T03:04:58.803Z,305
2023-04-15T03:05:32.216Z,303
2023-04-15T03:06:02.835Z,299
2023-04-15T03:06:34.957Z,295
2023-04-15T03:07:07.154Z,296
2023-04-15T03:07:38.787Z,294
2023-04-15T03:08:11.638Z,292
2023-04-15T03:08:36.742Z,290
2023-04-15T03:08:58.835Z,286
2023-04-15T03:09:31.885Z,285
2023-04-15T03:10:04.536Z,287
2023-04-15T03:10:35.070Z,287
2023-04-15T03:11:07.312Z,288
2023-04-15T03:11:38.847Z,287
2023-04-15T03:12:11.710Z,286
2023-04-15T03:12:36.918Z,288
2023-04-15T03:12:59.003Z,287
2023-04-15T03:13:32.000Z,289
2023-04-15T03:14:02.968Z,287
2023-04-15T03:14:35.080Z,285
2023-04-15T03:15:08.431Z,287
2023-04-15T03:15:39.079Z,287
2023-04-15T03:16:11.700Z,288
2023-04-15T03:16:36.765Z,286
2023-04-15T03:16:58.938Z,286
2023-04-15T03:17:32.211Z,283
2023-04-15T03:18:03.074Z,284
2023-04-15T03:18:35.137Z,282
2023-04-15T03:19:07.284Z,286
2023-04-15T03:19:38.877Z,285
2023-04-15T03:20:12.070Z,286
2023-04-15T03:20:36.897Z,285
2023-04-15T03:20:59.371Z,284
2023-04-15T03:21:31.985Z,282
2023-04-15T03:22:02.964Z,284
2023-04-15T03:22:35.008Z,283
2023-04-15T03:22:51.846Z,284
2023-04-15T03:23:23.447Z,283
2023-04-15T03:23:45.040Z,286
2023-04-15T03:24:11.786Z,290
2023-04-15T03:24:36.899Z,291
2023-04-15T03:24:58.937Z,291
2023-04-15T03:25:32.301Z,291
2023-04-15T03:26:03.037Z,291
2023-04-15T03:26:35.060Z,287
2023-04-15T03:27:07.317Z,287
2023-04-15T03:27:39.043Z,288
2023-04-15T03:28:11.715Z,290
2023-04-15T03:28:36.925Z,291
2023-04-15T03:28:59.075Z,290
2023-04-15T03:29:31.976Z,287
2023-04-15T03:30:05.157Z,287
2023-04-15T03:30:35.213Z,285
2023-04-15T03:31:07.357Z,285
2023-04-15T03:31:39.318Z,283
2023-04-15T03:32:11.745Z,283
2023-04-15T03:32:36.927Z,280
2023-04-15T03:32:58.921Z,279
2023-04-15T03:33:31.840Z,276
2023-04-15T03:34:03.221Z,273
2023-04-15T03:34:35.020Z,270
2023-04-15T03:35:08.019Z,271
2023-04-15T03:35:38.872Z,271
2023-04-15T03:36:11.807Z,270
2023-04-15T03:36:36.740Z,271
2023-04-15T03:36:58.844Z,273
2023-04-15T03:37:32.047Z,271
2023-04-15T03:38:02.960Z,180
2023-04-15T03:38:34.997Z,180
2023-04-15T03:39:07.065Z,180
2023-04-15T03:39:38.755Z,271
2023-04-15T03:40:12.154Z,270
2023-04-15T03:40:36.887Z,180
2023-04-15T03:40:59.360Z,272
2023-04-15T03:41:32.038Z,271
2023-04-15T03:42:02.966Z,180
2023-04-15T03:42:35.028Z,180
2023-04-15T03:43:07.195Z,272
2023-04-15T03:43:38.958Z,274
2023-04-15T03:44:11.751Z,273
2023-04-15T03:44:37.035Z,274
2023-04-15T03:44:58.963Z,271
2023-04-15T03:45:32.940Z,272
2023-04-15T03:46:03.091Z,272
2023-04-15T03:46:35.066Z,271
2023-04-15T03:47:07.433Z,180
2023-04-15T03:47:38.941Z,270
2023-04-15T03:48:17.876Z,272
2023-04-15T03:48:36.934Z,270
2023-04-15T03:48:59.133Z,180
2023-04-15T03:49:32.056Z,180
2023-04-15T03:50:04.665Z,180
2023-04-15T03:50:34.940Z,180
2023-04-15T03:51:07.108Z,180
2023-04-15T03:51:38.792Z,180
2023-04-15T03:52:11.715Z,180
2023-04-15T03:52:36.979Z,180
2023-04-15T03:52:58.864Z,180
2023-04-15T03:53:31.887Z,180
2023-04-15T03:54:02.915Z,180
2023-04-15T03:54:35.422Z,180
2023-04-15T03:55:08.096Z,180
2023-04-15T03:55:38.863Z,180
2023-04-15T03:56:11.684Z,180
2023-04-15T03:56:36.757Z,180
2023-04-15T03:56:58.814Z,180
2023-04-15T03:57:32.036Z,180
2023-04-15T03:58:03.303Z,180
2023-04-15T03:58:35.473Z,180
2023-04-15T03:58:51.657Z,180
2023-04-15T03:59:23.027Z,180
2023-04-15T03:59:44.713Z,180
2023-04-15T04:00:12.830Z,180
2023-04-15T04:00:37.393Z,180
2023-04-15T04:00:59.508Z,180
2023-04-15T04:01:31.882Z,180
2023-04-15T04:02:03.403Z,180
2023-04-15T04:02:35.240Z,180
2023-04-15T04:03:07.628Z,180
2023-04-15T04:03:39.583Z,180
2023-04-15T04:04:11.771Z,180
2023-04-15T04:04:37.029Z,180
2023-04-15T04:04:58.880Z,180
2023-04-15T04:05:32.744Z,180
2023-04-15T04:06:03.063Z,180
2023-04-15T04:06:35.185Z,180
2023-04-15T04:07:07.334Z,180
2023-04-15T04:07:38.934Z,180
2023-04-15T04:08:11.738Z,180
2023-04-15T04:08:36.924Z,180
2023-04-15T04:08:59.137Z,180
2023-04-15T04:09:31.895Z,180
2023-04-15T04:10:04.901Z,180
2023-04-15T04:10:35.093Z,180
2023-04-15T04:11:07.664Z,180
2023-04-15T04:11:38.903Z,180
2023-04-15T04:12:11.628Z,180
2023-04-15T04:12:36.804Z,180
2023-04-15T04:12:58.849Z,180
2023-04-15T04:13:31.823Z,180
2023-04-15T04:14:03.040Z,180
2023-04-15T04:14:35.100Z,180
2023-04-15T04:15:08.535Z,180
2023-04-15T04:15:39.100Z,180
2023-04-15T04:16:11.588Z,180
2023-04-15T04:16:36.960Z,180
2023-04-15T04:16:59.004Z,180
2023-04-15T04:17:31.992Z,180
2023-04-15T04:18:03.045Z,180
2023-04-15T04:18:35.295Z,180
2023-04-15T04:18:51.674Z,180
2023-04-15T04:19:22.760Z,180
2023-04-15T04:19:45.173Z,180
2023-04-15T04:20:12.075Z,180
2023-04-15T04:20:36.814Z,180
2023-04-15T04:20:59.369Z,180
2023-04-15T04:21:31.791Z,180
2023-04-15T04:22:03.023Z,180
2023-04-15T04:22:35.085Z,180
2023-04-15T04:23:07.199Z,180
2023-04-15T04:23:38.794Z,180
2023-04-15T04:24:11.673Z,180
2023-04-15T04:24:36.875Z,180
2023-04-15T04:24:58.876Z,180
2023-04-15T04:25:32.352Z,180
2023-04-15T04:26:03.054Z,180
2023-04-15T04:26:35.076Z,180
2023-04-15T04:27:07.282Z,180
2023-04-15T04:27:38.953Z,180
2023-04-15T04:28:11.650Z,180
2023-04-15T04:28:37.113Z,180
2023-04-15T04:28:59.029Z,180
2023-04-15T04:29:31.519Z,180
2023-04-15T04:30:05.303Z,180
2023-04-15T04:30:35.396Z,180
2023-04-15T04:31:07.454Z,180
2023-04-15T04:31:39.101Z,180
2023-04-15T04:32:11.785Z,180
2023-04-15T04:32:37.281Z,180
2023-04-15T04:32:59.233Z,180
2023-04-15T04:33:31.936Z,180
2023-04-15T04:34:02.991Z,180
2023-04-15T04:34:35.216Z,180
2023-04-15T04:35:07.866Z,180
2023-04-15T04:35:38.790Z,180
2023-04-15T04:36:11.783Z,180
2023-04-15T04:36:37.233Z,180
2023-04-15T04:36:58.852Z,180
2023-04-15T04:37:31.796Z,180
2023-04-15T04:38:03.025Z,180
2023-04-15T04:38:35.283Z,180
2023-04-15T04:38:51.645Z,180
2023-04-15T04:39:22.910Z,180
2023-04-15T04:39:44.776Z,180
2023-04-15T04:40:12.383Z,180
2023-04-15T04:40:37.011Z,180
2023-04-15T04:40:59.534Z,180
2023-04-15T04:41:32.037Z,180
2023-04-15T04:42:03.037Z,180
2023-04-15T04:42:38.541Z,180
2023-04-15T04:43:07.114Z,180
2023-04-15T04:43:38.943Z,180
2023-04-15T04:44:11.628Z,180
2023-04-15T04:44:36.883Z,180
2023-04-15T04:44:59.122Z,180
2023-04-15T04:45:33.367Z,180
2023-04-15T04:46:03.128Z,180
2023-04-15T04:46:35.440Z,180
2023-04-15T04:47:06.998Z,180
2023-04-15T04:47:39.061Z,180
2023-04-15T04:48:11.568Z,180
2023-04-15T04:48:36.728Z,180
2023-04-15T04:48:59.292Z,180
2023-04-15T04:49:31.957Z,180
2023-04-15T04:50:04.467Z,180
2023-04-15T04:50:35.315Z,180
2023-04-15T04:51:07.336Z,180
2023-04-15T04:51:38.963Z,180
2023-04-15T04:52:11.748Z,180
2023-04-15T04:52:37.046Z,180
2023-04-15T04:52:59.191Z,180
2023-04-15T04:53:31.975Z,180
2023-04-15T04:54:03.835Z,180
2023-04-15T04:54:35.114Z,180
2023-04-15T04:55:08.146Z,180
2023-04-15T04:55:39.092Z,180
2023-04-15T04:56:11.832Z,180
2023-04-15T04:56:37.572Z,180
2023-04-15T04:56:59.822Z,180
2023-04-15T04:57:32.410Z,180
2023-04-15T04:58:03.394Z,180
2023-04-15T04:58:36.103Z,180
2023-04-15T04:59:07.364Z,180
2023-04-15T04:59:40.366Z,180
2023-04-15T05:00:13.141Z,180
2023-04-15T05:00:37.253Z,180
2023-04-15T05:00:59.603Z,180
2023-04-15T05:01:31.941Z,180
2023-04-15T05:02:03.564Z,180
2023-04-15T05:02:35.534Z,180
2023-04-15T05:03:07.720Z,180
2023-04-15T05:03:39.232Z,180
2023-04-15T05:04:12.029Z,180
2023-04-15T05:04:37.261Z,180
2023-04-15T05:04:59.125Z,180
2023-04-15T05:05:32.620Z,180
2023-04-15T05:06:03.250Z,180
2023-04-15T05:06:35.183Z,180
2023-04-15T05:07:07.696Z,180
2023-04-15T05:07:39.255Z,180
2023-04-15T05:08:11.821Z,180
2023-04-15T05:08:38.583Z,180
2023-04-15T05:08:59.685Z,180
2023-04-15T05:09:32.365Z,180
2023-04-15T05:10:04.679Z,180
2023-04-15T05:10:35.183Z,180
2023-04-15T05:11:07.760Z,180
2023-04-15T05:11:39.063Z,180
2023-04-15T05:12:11.951Z,180
2023-04-15T05:12:36.990Z,180
2023-04-15T05:12:59.572Z,180
2023-04-15T05:13:31.769Z,180
2023-04-15T05:14:03.254Z,180
2023-04-15T05:14:35.462Z,180
2023-04-15T05:14:51.922Z,180
2023-04-15T05:15:24.186Z,180
2023-04-15T05:15:45.293Z,180
2023-04-15T05:16:12.230Z,180
2023-04-15T05:16:37.062Z,180
2023-04-15T05:16:59.093Z,180
2023-04-15T05:17:32.261Z,180
2023-04-15T05:18:03.548Z,180
2023-04-15T05:18:35.805Z,180
2023-04-15T05:19:07.181Z,180
2023-04-15T05:19:38.972Z,180
2023-04-15T05:20:12.575Z,180
2023-04-15T05:20:36.991Z,180
2023-04-15T05:20:59.456Z,180
2023-04-15T05:21:32.045Z,180
2023-04-15T05:22:03.192Z,180
2023-04-15T05:22:35.216Z,180
2023-04-15T05:22:51.764Z,180
2023-04-15T05:23:23.626Z,180
2023-04-15T05:23:44.805Z,180
2023-04-15T05:24:11.921Z,180
2023-04-15T05:24:37.025Z,180
2023-04-15T05:24:59.321Z,180
2023-04-15T05:25:32.571Z,272
2023-04-15T05:26:03.164Z,272
2023-04-15T05:26:35.465Z,271
2023-04-15T05:27:07.295Z,180
2023-04-15T05:27:39.129Z,180
2023-04-15T05:28:11.838Z,180
2023-04-15T05:28:37.103Z,180
2023-04-15T05:28:59.082Z,180
2023-04-15T05:29:32.166Z,180
2023-04-15T05:30:05.545Z,180
2023-04-15T05:30:35.222Z,180
2023-04-15T05:31:07.609Z,180
2023-04-15T05:31:39.121Z,180
2023-04-15T05:32:11.846Z,271
2023-04-15T05:32:37.031Z,272
2023-04-15T05:32:59.165Z,273
2023-04-15T05:33:32.110Z,275
2023-04-15T05:34:03.237Z,275
2023-04-15T05:34:35.209Z,276
2023-04-15T05:35:08.167Z,275
2023-04-15T05:35:39.017Z,271
2023-04-15T05:36:11.856Z,272
2023-04-15T05:36:37.068Z,271
2023-04-15T05:37:00.043Z,272
2023-04-15T05:37:32.149Z,275
2023-04-15T05:38:03.164Z,275
2023-04-15T05:38:35.195Z,276
2023-04-15T05:39:07.688Z,278
2023-04-15T05:39:39.101Z,278
2023-04-15T05:40:12.277Z,278
2023-04-15T05:40:37.215Z,278
2023-04-15T05:40:59.419Z,279
2023-04-15T05:41:31.867Z,278
2023-04-15T05:42:03.262Z,279
2023-04-15T05:42:35.373Z,276
2023-04-15T05:42:51.851Z,278
2023-04-15T05:43:23.419Z,279
2023-04-15T05:43:45.322Z,279
2023-04-15T05:44:11.751Z,278
2023-04-15T05:44:37.189Z,278
2023-04-15T05:44:59.098Z,279
2023-04-15T05:45:33.526Z,280
2023-04-15T05:46:03.226Z,281
2023-04-15T05:46:36.112Z,284
2023-04-15T05:47:07.353Z,283
2023-04-15T05:47:39.056Z,282
2023-04-15T05:48:12.187Z,282
2023-04-15T05:48:37.025Z,281
2023-04-15T05:48:59.357Z,277
2023-04-15T05:49:32.649Z,278
2023-04-15T05:50:04.918Z,279
2023-04-15T05:50:35.367Z,280
2023-04-15T05:51:07.555Z,283
2023-04-15T05:51:39.245Z,279
2023-04-15T05:52:12.030Z,281
2023-04-15T05:52:37.841Z,278
2023-04-15T05:52:59.333Z,279
2023-04-15T05:53:32.386Z,281
2023-04-15T05:54:03.471Z,280
2023-04-15T05:54:35.341Z,284
2023-04-15T05:54:52.001Z,289
2023-04-15T05:55:23.761Z,292
2023-04-15T05:55:44.961Z,297
2023-04-15T05:56:12.054Z,293
2023-04-15T05:56:37.209Z,292
2023-04-15T05:56:59.097Z,293
2023-04-15T05:57:32.832Z,292
2023-04-15T05:58:03.239Z,291
2023-04-15T05:58:35.791Z,296
2023-04-15T05:59:07.333Z,298
2023-04-15T05:59:39.018Z,300
2023-04-15T06:00:14.639Z,297
2023-04-15T06:00:37.471Z,293
2023-04-15T06:00:59.609Z,295
2023-04-15T06:01:32.584Z,295
2023-04-15T06:02:03.216Z,298
2023-04-15T06:02:35.731Z,294
2023-04-15T06:03:07.510Z,296
2023-04-15T06:03:39.428Z,297
2023-04-15T06:04:12.206Z,294
2023-04-15T06:04:37.318Z,291
2023-04-15T06:04:59.174Z,288
2023-04-15T06:05:32.414Z,284
2023-04-15T06:06:03.252Z,283
2023-04-15T06:06:35.869Z,283
2023-04-15T06:07:07.521Z,284
2023-04-15T06:07:39.103Z,288
2023-04-15T06:08:11.966Z,289
2023-04-15T06:08:37.655Z,287
2023-04-15T06:08:59.106Z,287
2023-04-15T06:09:32.055Z,284
2023-04-15T06:10:04.845Z,286
2023-04-15T06:10:35.134Z,285
2023-04-15T06:10:52.429Z,285
2023-04-15T06:11:23.130Z,282
2023-04-15T06:11:44.927Z,281
2023-04-15T06:12:11.858Z,280
2023-04-15T06:12:37.285Z,276
2023-04-15T06:12:59.073Z,276
2023-04-15T06:13:32.163Z,276
2023-04-15T06:14:03.225Z,274
2023-04-15T06:14:36.360Z,274
2023-04-15T06:15:08.715Z,273
2023-04-15T06:15:39.751Z,273
2023-04-15T06:16:12.205Z,272
2023-04-15T06:16:37.416Z,271
2023-04-15T06:16:59.821Z,271
2023-04-15T06:17:32.318Z,180
2023-04-15T06:18:03.365Z,271
2023-04-15T06:18:35.330Z,271
2023-04-15T06:19:07.703Z,274
2023-04-15T06:19:39.264Z,272
2023-04-15T06:20:12.394Z,275
2023-04-15T06:20:37.773Z,278
2023-04-15T06:20:59.681Z,279
2023-04-15T06:21:32.328Z,281
2023-04-15T06:22:03.349Z,281
2023-04-15T06:22:35.327Z,279
2023-04-15T06:23:07.607Z,279
2023-04-15T06:23:39.130Z,279
2023-04-15T06:24:11.872Z,281
2023-04-15T06:24:37.813Z,281
2023-04-15T06:24:59.312Z,284
2023-04-15T06:25:32.771Z,287
2023-04-15T06:26:03.355Z,286
2023-04-15T06:26:35.568Z,284
2023-04-15T06:27:07.759Z,283
2023-04-15T06:27:39.441Z,284
2023-04-15T06:28:12.033Z,284
2023-04-15T06:28:37.132Z,281
2023-04-15T06:28:59.417Z,277
2023-04-15T06:29:32.705Z,277
2023-04-15T06:30:05.668Z,276
2023-04-15T06:30:35.474Z,273
2023-04-15T06:31:08.029Z,276
2023-04-15T06:31:39.288Z,273
2023-04-15T06:32:12.169Z,272
2023-04-15T06:32:37.213Z,274
2023-04-15T06:32:59.295Z,273
2023-04-15T06:33:32.338Z,273
2023-04-15T06:34:03.413Z,273
2023-04-15T06:34:36.057Z,271
2023-04-15T06:35:08.132Z,180
2023-04-15T06:35:39.204Z,180
2023-04-15T06:36:11.987Z,180
2023-04-15T06:36:37.289Z,180
2023-04-15T06:36:59.301Z,180
2023-04-15T06:37:32.375Z,180
2023-04-15T06:38:03.255Z,180
2023-04-15T06:38:35.617Z,180
2023-04-15T06:39:07.618Z,180
2023-04-15T06:39:39.166Z,180
2023-04-15T06:40:12.477Z,180
2023-04-15T06:40:37.210Z,180
2023-04-15T06:40:59.502Z,180
2023-04-15T06:41:32.638Z,180
2023-04-15T06:42:03.413Z,180
2023-04-15T06:42:35.478Z,180
2023-04-15T06:43:07.684Z,180
2023-04-15T06:43:39.208Z,180
2023-04-15T06:44:12.297Z,180
2023-04-15T06:44:37.548Z,180
2023-04-15T06:44:59.106Z,180
2023-04-15T06:45:33.058Z,180
2023-04-15T06:46:03.386Z,180
2023-04-15T06:46:35.462Z,180
2023-04-15T06:47:07.705Z,180
2023-04-15T06:47:39.332Z,180